Accueil
METAR-TAF:

METAR-TAF

Aéroports :

Aéroport de Charleroi-Bruxelles-Sud

Charleroi, Belgique

latitude: 50-28N, longitude: 004-27E, altitude: 187 m

Observation

Le bulletin a été fait il y a 17 minutes, à 01:50 UTC
Vent 4 kt de sud-est
Température 12°C
Humidité 71%
Pression 1026 hPa
Visibilité 10 km ou plus
pas de nuages en-dessous de 1500 mètres et pas de cumulonimbus.

METAR: EBCI 080150Z AUTO 14004KT CAVOK 12/07 Q1026

Heure: 04:07 (02:07 UTC)

Prévision

Le bulletin a été fait il y a 3 heures et 7 minutes, à 23:00 UTC
Prévision valable du 08 à 00 UTC au 09 à 06 UTC
Vent 4 kt de est/sud-est
Visibilité 10 km ou plus
pas de nuages en-dessous de 1500 mètres et pas de cumulonimbus.
Temporairement
du 09 à 02 UTC au 09 à 06 UTC
Visibilité: 3000 m
brume

TAF: EBCI 072300Z 0800/0906 12004KT CAVOK TEMPO 0902/0906 3000 BR

Observations et prévisions météorologiques de plus de 4000 aéroports (messages METAR et TAF).

Les stations disponibles sont représentées par des disques jaunes et rouges sur la carte.

Passer la souris dessus pour voir le nom de la station.

Cliquer dessus pour voir les observations et prévisions météorologiques.

Pour changer de carte: cliquez sur les boutons verts avec une croix noire pour zoomer, sur le bouton vert avec un tiret pour effectuer un zoom arrière, ou sur les flèches vertes pour les cartes adjacentes.


METAR-TAF: